Time;durP1;ratioP1;P1;durP2;ratioP2;P2;SDS_P1;SDS_P2;PMS_P1;PMS_P2;Temp;Humidity;BMP_temperature;BMP_pressure;BME280_temperature;BME280_humidity;BME280_pressure;Samples;Min_cycle;Max_cycle;Signal;HPM_P1;HPM_P2
2022/09/01 00:01:44;;;;;;;6.27;1.80;;;;;;;17.80;46.86;101937.75;5149810;28;20035;-73
2022/09/01 00:04:19;;;;;;;3.37;1.43;;;;;;;17.89;47.06;101951.16;5146914;29;20045;-74
2022/09/01 00:06:53;;;;;;;6.77;1.43;;;;;;;17.95;46.93;101933.97;5149364;28;20031;-74
2022/09/01 00:09:24;;;;;;;3.63;1.23;;;;;;;17.95;47.38;101941.06;5147915;28;20086;-74
2022/09/01 00:11:56;;;;;;;5.37;1.47;;;;;;;17.76;47.92;101927.38;5149138;29;20412;-74
2022/09/01 00:14:30;;;;;;;2.30;1.80;;;;;;;17.76;48.09;101943.28;5147581;29;20065;-74
2022/09/01 00:17:06;;;;;;;4.53;1.37;;;;;;;17.76;48.28;101940.63;5147679;28;20063;-74
2022/09/01 00:19:38;;;;;;;4.33;1.30;;;;;;;17.61;48.66;101931.16;5150586;28;20023;-71
2022/09/01 00:22:10;;;;;;;4.17;2.07;;;;;;;17.64;48.89;101930.91;5152365;28;20038;-73
2022/09/01 00:24:41;;;;;;;4.37;1.50;;;;;;;17.66;49.08;101929.84;5148742;28;20483;-74
2022/09/01 00:27:12;;;;;;;4.73;1.23;;;;;;;17.53;49.68;101940.50;5148613;29;20027;-74
2022/09/01 00:29:43;;;;;;;2.53;1.20;;;;;;;17.46;49.95;101938.38;5147423;29;20050;-74
2022/09/01 00:32:15;;;;;;;5.90;1.80;;;;;;;17.44;49.97;101938.50;5146845;29;20122;-74
2022/09/01 00:34:46;;;;;;;3.77;1.50;;;;;;;17.31;50.39;101941.19;5148767;28;20030;-74
2022/09/01 00:37:17;;;;;;;2.13;1.00;;;;;;;17.27;51.30;101939.72;5148014;29;20059;-74
2022/09/01 00:39:49;;;;;;;6.50;1.43;;;;;;;17.27;50.99;101943.22;5148949;29;20027;-74
2022/09/01 00:42:20;;;;;;;4.13;1.40;;;;;;;17.25;51.44;101942.47;5148590;28;20094;-74
2022/09/01 00:44:51;;;;;;;3.70;1.30;;;;;;;17.12;51.80;101939.84;5147507;28;20059;-74
2022/09/01 00:47:23;;;;;;;4.63;1.47;;;;;;;17.10;52.16;101928.53;5148181;28;20027;-74
2022/09/01 00:49:54;;;;;;;5.90;1.70;;;;;;;17.11;52.26;101935.50;5146459;28;20023;-74
2022/09/01 00:52:32;;;;;;;3.10;1.40;;;;;;;17.05;52.44;101938.56;5148634;28;20503;-74
2022/09/01 00:55:10;;;;;;;5.47;1.50;;;;;;;16.99;52.78;101937.19;5148493;28;20023;-73
2022/09/01 00:57:42;;;;;;;4.03;1.60;;;;;;;17.12;52.66;101941.66;5147484;29;20380;-74
2022/09/01 01:00:23;;;;;;;3.07;1.27;;;;;;;17.08;52.73;101941.00;5147694;29;20109;-74
2022/09/01 01:02:55;;;;;;;3.80;1.70;;;;;;;17.03;52.98;101943.13;5148849;28;20110;-74
2022/09/01 01:05:35;;;;;;;8.23;1.53;;;;;;;16.91;53.93;101940.34;5156425;23;20162;-74
2022/09/01 01:08:08;;;;;;;7.10;1.67;;;;;;;16.86;53.81;101931.91;5146341;28;20039;-74
2022/09/01 01:10:40;;;;;;;4.80;1.70;;;;;;;16.81;54.57;101936.66;5147873;28;20042;-74
2022/09/01 01:13:15;;;;;;;5.47;1.73;;;;;;;16.99;53.74;101933.69;5147979;29;20036;-74
2022/09/01 01:15:47;;;;;;;5.77;1.40;;;;;;;16.72;54.44;101929.38;5148553;28;20046;-74
2022/09/01 01:18:18;;;;;;;3.47;1.37;;;;;;;16.69;54.88;101930.41;5147764;28;20035;-74
2022/09/01 01:24:24;;;;;;;3.30;1.60;;;;;;;16.65;55.19;101929.78;5148609;29;20501;-74
2022/09/01 01:26:58;;;;;;;6.77;2.40;;;;;;;16.59;55.59;101930.22;5147774;29;20039;-74
2022/09/01 01:29:32;;;;;;;4.90;1.90;;;;;;;16.50;56.16;101928.19;5145940;29;20394;-74
2022/09/01 01:32:12;;;;;;;3.85;1.67;;;;;;;16.54;55.87;101921.75;5147911;29;20035;-74
2022/09/01 01:34:44;;;;;;;3.93;1.73;;;;;;;16.40;56.67;101931.47;5147468;28;20560;-74
2022/09/01 01:37:17;;;;;;;10.27;1.40;;;;;;;16.40;56.60;101934.13;5147898;28;20484;-74
2022/09/01 01:39:48;;;;;;;4.30;1.63;;;;;;;16.52;56.70;101936.88;5147778;28;20401;-74
2022/09/01 01:42:20;;;;;;;3.73;1.50;;;;;;;16.33;57.05;101914.34;5147031;29;20046;-74
2022/09/01 01:44:51;;;;;;;2.33;1.53;;;;;;;16.31;57.58;101938.22;5148305;29;20031;-74
2022/09/01 01:47:22;;;;;;;3.70;1.47;;;;;;;16.33;57.15;101936.34;5147706;29;20565;-73
2022/09/01 01:49:54;;;;;;;4.73;1.63;;;;;;;16.33;57.02;101941.63;5148061;28;20027;-73
2022/09/01 01:52:25;;;;;;;4.03;1.70;;;;;;;16.33;57.63;101936.34;5147379;28;20055;-74
2022/09/01 01:54:57;;;;;;;4.57;1.73;;;;;;;16.13;57.92;101929.72;5148474;29;20586;-74
2022/09/01 01:57:31;;;;;;;5.87;1.60;;;;;;;16.15;57.89;101929.63;5147210;28;20023;-74
2022/09/01 02:00:04;;;;;;;7.55;1.85;;;;;;;16.00;58.71;101945.56;5147716;28;20577;-74
2022/09/01 02:02:36;;;;;;;3.33;1.70;;;;;;;16.04;58.76;101940.91;5151462;28;20028;-74
2022/09/01 02:05:08;;;;;;;7.23;1.80;;;;;;;15.95;58.74;101937.88;5149830;29;20477;-74
2022/09/01 02:07:41;;;;;;;5.53;1.80;;;;;;;15.98;58.76;101931.56;5150050;29;20047;-74
2022/09/01 02:10:13;;;;;;;4.90;1.40;;;;;;;15.96;59.19;101936.94;5150146;29;20031;-74
2022/09/01 02:12:45;;;;;;;4.00;1.80;;;;;;;15.79;59.45;101932.78;5150514;28;20046;-74
2022/09/01 02:15:16;;;;;;;6.57;1.70;;;;;;;15.85;59.56;101937.63;5150760;28;20518;-74
2022/09/01 02:17:48;;;;;;;5.10;1.50;;;;;;;15.90;59.56;101939.97;5151182;29;20031;-74
2022/09/01 02:20:21;;;;;;;4.90;1.93;;;;;;;15.86;59.58;101943.78;5151941;28;20462;-74
2022/09/01 02:22:54;;;;;;;5.22;1.92;;;;;;;15.81;59.89;101945.88;5151233;28;20058;-74
2022/09/01 02:25:26;;;;;;;5.63;1.77;;;;;;;15.83;59.44;101939.53;5149424;29;20434;-74
2022/09/01 02:27:59;;;;;;;4.17;2.30;;;;;;;15.75;59.86;101946.25;5149988;28;20035;-73
2022/09/01 02:30:33;;;;;;;8.07;1.80;;;;;;;15.89;59.25;101927.72;5151169;28;20403;-74
2022/09/01 02:33:04;;;;;;;2.38;1.70;;;;;;;15.76;59.95;101934.75;5150824;28;20035;-74
2022/09/01 02:35:36;;;;;;;1.83;1.33;;;;;;;15.73;60.15;101938.44;5150932;29;20035;-72
2022/09/01 02:38:08;;;;;;;3.43;1.87;;;;;;;15.73;60.29;101939.28;5149460;28;20106;-73
2022/09/01 02:40:45;;;;;;;6.27;1.40;;;;;;;15.63;60.79;101937.31;5150428;29;20110;-73
2022/09/01 02:43:19;;;;;;;5.90;1.67;;;;;;;15.67;60.31;101939.69;5148538;28;20548;-73
2022/09/01 02:45:54;;;;;;;5.53;2.00;;;;;;;15.58;60.59;101925.28;5148673;29;20027;-73
2022/09/01 02:48:34;;;;;;;4.07;2.00;;;;;;;15.72;60.31;101939.38;5149184;29;20062;-73
2022/09/01 02:51:13;;;;;;;8.47;1.83;;;;;;;15.60;60.77;101938.38;5150550;28;20031;-73
2022/09/01 02:53:51;;;;;;;7.17;2.27;;;;;;;15.52;61.25;101930.09;5148870;29;20097;-73
2022/09/01 02:56:26;;;;;;;7.03;1.70;;;;;;;15.55;61.14;101929.91;5150513;28;20058;-73
2022/09/01 02:59:00;;;;;;;3.07;1.80;;;;;;;15.35;61.55;101929.38;5149906;28;20039;-73
2022/09/01 03:01:32;;;;;;;;;;;;;;;15.89;58.68;101924.22;5150362;28;20529;-73
2022/09/01 03:04:08;;;;;;;6.27;1.80;;;;;;;15.44;61.16;101914.75;5150428;28;19926;-73
2022/09/01 03:06:40;;;;;;;4.80;1.80;;;;;;;15.42;61.43;101912.22;5149780;28;20114;-73
2022/09/01 03:09:14;;;;;;;4.43;1.90;;;;;;;15.41;61.74;101917.59;5150489;29;20792;-73
2022/09/01 03:11:49;;;;;;;6.00;1.90;;;;;;;15.27;62.13;101921.09;5147727;28;20031;-73
2022/09/01 03:14:21;;;;;;;5.07;2.00;;;;;;;15.17;62.39;101919.03;5147909;29;20027;-73
2022/09/01 03:16:52;;;;;;;5.67;2.57;;;;;;;15.29;62.08;101924.50;5150111;28;20082;-73
2022/09/01 03:19:24;;;;;;;6.50;2.00;;;;;;;15.17;62.43;101916.38;5152899;28;20031;-73
2022/09/01 03:21:59;;;;;;;6.33;1.80;;;;;;;15.17;62.75;101932.22;5150699;29;20288;-71
2022/09/01 03:24:31;;;;;;;6.03;1.80;;;;;;;15.06;62.68;101924.97;5150056;28;20119;-73
2022/09/01 03:27:02;;;;;;;5.90;1.93;;;;;;;15.14;62.48;101935.06;5149271;29;20450;-73
2022/09/01 03:29:34;;;;;;;5.50;2.50;;;;;;;15.10;62.38;101930.91;5149197;28;20053;-72
2022/09/01 03:32:06;;;;;;;14.70;2.73;;;;;;;14.97;62.88;101920.28;5148548;29;20035;-71
2022/09/01 03:34:37;;;;;;;7.00;2.37;;;;;;;14.93;63.54;101924.88;5149418;28;20035;-72
2022/09/01 03:37:11;;;;;;;10.33;2.30;;;;;;;15.09;62.40;101930.06;5149891;28;20125;-72
2022/09/01 03:39:42;;;;;;;4.43;1.70;;;;;;;14.94;62.85;101923.94;5149143;29;20050;-72
2022/09/01 03:42:24;;;;;;;7.90;1.80;;;;;;;15.02;63.04;101925.25;5147133;28;20290;-72
2022/09/01 03:44:56;;;;;;;6.97;2.67;;;;;;;14.86;63.58;101920.91;5149094;28;20031;-72
2022/09/01 03:47:28;;;;;;;7.93;2.03;;;;;;;14.92;63.17;101925.84;5149592;28;20035;-72
2022/09/01 03:49:59;;;;;;;8.50;1.97;;;;;;;14.98;63.28;101921.97;5149793;29;20033;-72
2022/09/01 03:52:30;;;;;;;8.20;1.80;;;;;;;14.93;63.23;101922.25;5148771;28;20050;-72
2022/09/01 03:55:02;;;;;;;3.90;1.60;;;;;;;14.84;63.43;101905.19;5149533;29;20745;-72
2022/09/01 03:57:33;;;;;;;5.07;1.60;;;;;;;14.81;63.71;101915.09;5148242;28;20514;-72
2022/09/01 04:00:06;;;;;;;4.07;2.17;;;;;;;14.83;63.92;101921.97;5149361;28;20027;-72
2022/09/01 04:02:37;;;;;;;8.50;2.40;;;;;;;14.87;63.56;101914.72;5148810;28;20027;-72
2022/09/01 04:05:08;;;;;;;5.10;1.80;;;;;;;14.87;63.21;101904.19;5149067;28;20077;-72
2022/09/01 04:07:40;;;;;;;3.60;1.70;;;;;;;14.72;64.15;101917.31;5149000;28;20039;-72
2022/09/01 04:10:11;;;;;;;5.27;1.93;;;;;;;14.78;63.97;101920.50;5148636;29;20051;-72
2022/09/01 04:12:44;;;;;;;3.23;1.60;;;;;;;14.69;64.19;101914.88;5148311;29;20035;-72
2022/09/01 04:15:17;;;;;;;3.67;1.63;;;;;;;14.72;64.36;101921.72;5146922;29;20034;-72
2022/09/01 04:20:49;;;;;;;6.53;2.20;;;;;;;14.71;64.24;101912.13;5148702;29;20035;-72
2022/09/01 04:23:30;;;;;;;4.27;1.87;;;;;;;14.84;63.99;101914.88;5148444;28;20055;-72
2022/09/01 04:26:09;;;;;;;5.53;1.83;;;;;;;14.66;64.32;101912.38;5148953;28;20067;-72
2022/09/01 04:28:44;;;;;;;4.20;1.80;;;;;;;14.71;64.46;101915.63;5147575;28;20533;-72
2022/09/01 04:31:18;;;;;;;3.73;1.80;;;;;;;14.71;64.61;101923.53;5148616;28;20028;-72
2022/09/01 04:33:54;;;;;;;3.70;1.60;;;;;;;14.73;64.59;101920.81;5149142;28;20121;-72
2022/09/01 04:36:31;;;;;;;8.00;2.13;;;;;;;14.69;64.58;101917.50;5146943;28;20023;-72
2022/09/01 04:39:07;;;;;;;10.93;2.20;;;;;;;14.76;63.95;101929.38;5148873;28;20058;-72
2022/09/01 04:41:44;;;;;;;2.43;1.57;;;;;;;14.74;64.17;101919.84;5148479;28;20023;-72
2022/09/01 04:44:17;;;;;;;5.10;2.17;;;;;;;14.67;64.11;101919.38;5146757;29;20038;-72
2022/09/01 04:46:49;;;;;;;8.17;1.90;;;;;;;14.70;63.66;101927.09;5147884;28;20122;-72
2022/09/01 04:49:22;;;;;;;6.40;1.70;;;;;;;14.58;64.30;101919.91;5148457;28;20106;-72
2022/09/01 04:51:53;;;;;;;5.63;1.83;;;;;;;14.69;63.83;101922.78;5148510;28;20019;-72
2022/09/01 04:54:25;;;;;;;3.43;1.90;;;;;;;14.65;63.67;101921.25;5148874;29;20031;-70
2022/09/01 04:56:57;;;;;;;5.87;2.40;;;;;;;14.66;63.69;101928.22;5147434;28;20110;-71
2022/09/01 04:59:28;;;;;;;4.20;1.97;;;;;;;14.50;64.20;101921.22;5148514;29;20055;-70
2022/09/01 05:02:00;;;;;;;8.27;2.13;;;;;;;14.57;63.80;101918.22;5148057;28;20038;-70
2022/09/01 05:04:32;;;;;;;5.93;2.03;;;;;;;14.60;63.34;101918.91;5148166;28;20140;-73
2022/09/01 05:07:04;;;;;;;4.83;2.07;;;;;;;14.47;64.03;101923.22;5146952;28;20051;-72
2022/09/01 05:09:36;;;;;;;3.90;1.93;;;;;;;14.49;63.92;101922.16;5147848;28;20082;-71
2022/09/01 05:12:11;;;;;;;3.37;1.90;;;;;;;14.50;63.96;101928.31;5147361;28;20051;-72
2022/09/01 05:14:47;;;;;;;4.82;1.85;;;;;;;14.55;63.64;101926.25;5147430;28;20035;-68
2022/09/01 05:17:18;;;;;;;6.40;2.27;;;;;;;14.51;63.75;101919.44;5148062;28;20027;-69
2022/09/01 05:19:50;;;;;;;6.53;2.10;;;;;;;14.45;63.89;101918.00;5147454;28;20043;-68
2022/09/01 05:22:21;;;;;;;6.10;1.47;;;;;;;14.46;64.15;101929.41;5146691;28;20015;-68
2022/09/01 05:24:53;;;;;;;6.90;2.10;;;;;;;14.54;63.79;101924.53;5148213;28;20038;-68
2022/09/01 05:27:25;;;;;;;7.47;2.70;;;;;;;14.40;64.01;101922.69;5141968;28;20055;-69
2022/09/01 05:29:59;;;;;;;7.30;1.80;;;;;;;14.45;64.07;101923.28;5146730;28;20033;-69
2022/09/01 05:32:32;;;;;;;6.83;1.77;;;;;;;14.55;64.00;101928.03;5157274;28;20050;-70
2022/09/01 05:35:07;;;;;;;4.97;1.77;;;;;;;14.65;63.80;101926.53;5171612;28;20041;-70
2022/09/01 05:37:38;;;;;;;5.60;1.70;;;;;;;14.53;63.51;101925.47;5172676;28;20025;-70
2022/09/01 05:40:14;;;;;;;5.10;1.90;;;;;;;14.51;63.59;101920.28;5170818;28;20035;-70
2022/09/01 05:42:46;;;;;;;4.60;1.40;;;;;;;14.54;63.67;101931.59;5171263;28;20031;-70
2022/09/01 05:45:19;;;;;;;6.83;1.60;;;;;;;14.50;63.70;101925.66;5166171;28;20571;-70
2022/09/01 05:47:52;;;;;;;4.93;2.10;;;;;;;14.60;63.54;101937.34;5171550;28;20118;-70
2022/09/01 05:50:23;;;;;;;4.20;1.87;;;;;;;14.58;63.49;101925.19;5170118;28;20030;-70
2022/09/01 05:52:54;;;;;;;4.70;1.53;;;;;;;14.60;63.29;101928.59;5171484;28;20035;-70
2022/09/01 05:55:26;;;;;;;3.00;1.63;;;;;;;14.58;63.29;101925.19;5168297;28;20045;-70
2022/09/01 05:57:57;;;;;;;7.43;2.30;;;;;;;14.64;63.64;101935.38;5148183;28;20066;-70
2022/09/01 06:00:33;;;;;;;5.03;1.77;;;;;;;14.62;63.55;101937.25;5151021;28;20449;-68
2022/09/01 06:03:07;;;;;;;5.33;1.80;;;;;;;14.59;64.16;101937.44;5150968;28;20024;-68
2022/09/01 06:05:39;;;;;;;5.50;1.83;;;;;;;14.60;63.62;101928.59;5148009;28;20066;-69
2022/09/01 06:08:12;;;;;;;7.80;2.23;;;;;;;14.76;63.22;101939.94;5150842;28;20038;-68
2022/09/01 06:10:44;;;;;;;4.57;1.97;;;;;;;14.85;62.95;101942.97;5150732;28;20025;-71
2022/09/01 06:13:20;;;;;;;5.30;2.33;;;;;;;14.82;63.14;101937.91;5149713;28;20027;-71
2022/09/01 06:15:52;;;;;;;5.50;2.03;;;;;;;14.73;63.42;101949.81;5150635;28;20405;-70
2022/09/01 06:18:23;;;;;;;9.47;1.93;;;;;;;14.71;63.31;101946.41;5149762;28;20023;-70
2022/09/01 06:20:55;;;;;;;7.53;1.80;;;;;;;14.85;62.69;101948.25;5149972;28;20046;-70
2022/09/01 06:23:26;;;;;;;8.47;2.33;;;;;;;14.74;62.69;101941.81;5149565;29;20035;-70
2022/09/01 06:25:58;;;;;;;6.23;2.50;;;;;;;14.75;62.62;101943.50;5150691;28;20062;-71
2022/09/01 06:28:30;;;;;;;4.20;2.27;;;;;;;14.73;62.96;101947.16;5149930;28;20882;-72
2022/09/01 06:31:05;;;;;;;9.37;2.17;;;;;;;14.87;62.55;101936.66;5152916;28;20118;-72
2022/09/01 06:33:38;;;;;;;5.10;2.33;;;;;;;14.90;63.00;101945.31;5151157;28;20345;-72
2022/09/01 06:36:10;;;;;;;10.43;2.37;;;;;;;15.06;62.39;101939.97;5149769;29;20049;-74
2022/09/01 06:38:41;;;;;;;5.97;2.00;;;;;;;15.07;62.11;101942.50;5146771;29;20027;-73
2022/09/01 06:41:12;;;;;;;5.20;2.10;;;;;;;15.05;62.75;101938.25;5150578;28;20695;-73
2022/09/01 06:43:49;;;;;;;4.33;2.00;;;;;;;15.18;61.82;101949.75;5146758;29;20055;-74
2022/09/01 06:46:22;;;;;;;4.60;1.93;;;;;;;15.15;61.91;101949.09;5143064;28;20042;-73
2022/09/01 06:48:57;;;;;;;5.03;2.30;;;;;;;15.18;62.00;101956.81;5160584;28;20032;-72
2022/09/01 06:51:29;;;;;;;4.57;1.90;;;;;;;15.14;61.88;101948.25;5147673;29;20050;-73
2022/09/01 06:54:01;;;;;;;5.63;2.43;;;;;;;15.26;61.77;101945.78;5150255;28;20035;-73
2022/09/01 06:56:33;;;;;;;5.90;2.37;;;;;;;15.39;61.70;101949.38;5149208;28;20564;-73
2022/09/01 06:59:06;;;;;;;4.27;2.13;;;;;;;15.38;61.85;101945.00;5149896;28;20031;-73
2022/09/01 07:01:38;;;;;;;4.43;2.37;;;;;;;15.52;62.01;101956.47;5148979;29;20109;-72
2022/09/01 07:04:09;;;;;;;8.57;2.40;;;;;;;15.42;61.74;101951.81;5161120;28;20039;-73
2022/09/01 07:06:40;;;;;;;5.43;1.87;;;;;;;15.56;61.54;101955.34;5149731;28;20047;-73
2022/09/01 07:09:12;;;;;;;8.10;2.73;;;;;;;15.63;61.72;101954.03;5149416;29;20043;-73
2022/09/01 07:11:44;;;;;;;15.00;2.10;;;;;;;15.75;61.16;101962.94;5148744;29;20094;-74
2022/09/01 07:14:15;;;;;;;8.00;2.13;;;;;;;15.75;61.45;101954.19;5147878;29;20039;-74
2022/09/01 07:16:46;;;;;;;6.60;2.00;;;;;;;15.92;61.44;101968.94;5150001;28;20090;-74
2022/09/01 07:19:18;;;;;;;3.87;2.10;;;;;;;16.00;61.03;101955.25;5149632;29;20031;-73
2022/09/01 07:21:49;;;;;;;5.50;2.10;;;;;;;16.09;61.01;101957.31;5149574;29;20100;-73
2022/09/01 07:24:20;;;;;;;6.17;2.47;;;;;;;16.31;61.34;101958.53;5148186;29;20082;-73
2022/09/01 07:26:52;;;;;;;6.57;2.13;;;;;;;16.45;59.88;101961.09;5148862;29;20027;-73
2022/09/01 07:29:24;;;;;;;7.60;2.07;;;;;;;16.71;59.31;101967.34;5149534;29;20077;-73
2022/09/01 07:31:55;;;;;;;6.80;2.20;;;;;;;16.97;58.79;101962.06;5148032;29;20541;-73
2022/09/01 07:34:27;;;;;;;6.57;2.23;;;;;;;17.31;57.65;101966.81;5149457;29;20030;-73
2022/09/01 07:36:58;;;;;;;8.10;2.00;;;;;;;17.44;57.27;101956.22;5149917;29;20558;-73
2022/09/01 07:39:30;;;;;;;7.33;2.37;;;;;;;17.74;56.34;101962.88;5147557;29;20031;-73
2022/09/01 07:42:08;;;;;;;6.70;2.30;;;;;;;18.05;55.98;101960.63;5147388;29;20058;-73
2022/09/01 07:44:40;;;;;;;8.03;2.13;;;;;;;18.55;54.53;101967.56;5148954;28;20059;-73
2022/09/01 07:47:14;;;;;;;5.33;2.37;;;;;;;19.07;53.13;101966.28;5149377;28;20023;-73
2022/09/01 07:49:45;;;;;;;5.93;2.58;;;;;;;19.61;50.98;101963.00;5148977;28;20085;-74
2022/09/01 07:52:17;;;;;;;6.40;2.43;;;;;;;20.26;49.99;101957.72;5148985;29;20031;-73
2022/09/01 07:54:48;;;;;;;9.20;1.60;;;;;;;21.24;48.25;101955.69;5149371;28;20070;-72
2022/09/01 07:57:21;;;;;;;9.77;2.20;;;;;;;21.84;46.79;101954.00;5147777;28;20102;-72
2022/09/01 07:59:54;;;;;;;6.95;2.20;;;;;;;22.75;45.06;101953.72;5149409;28;20031;-73
2022/09/01 08:02:26;;;;;;;8.32;2.17;;;;;;;23.42;43.38;101961.59;5147424;29;20110;-73
2022/09/01 08:04:59;;;;;;;9.40;2.47;;;;;;;23.92;42.47;101962.09;5149308;28;20378;-73
2022/09/01 08:07:30;;;;;;;10.80;2.63;;;;;;;24.44;40.41;101954.28;5148280;28;20091;-71
2022/09/01 08:10:04;;;;;;;8.75;2.20;;;;;;;24.87;40.18;101959.72;5147851;29;20114;-71
2022/09/01 08:12:36;;;;;;;5.05;1.90;;;;;;;25.62;38.84;101962.63;5146810;29;20050;-71
2022/09/01 08:15:10;;;;;;;6.60;2.20;;;;;;;25.59;38.83;101957.59;5148983;28;20398;-71
2022/09/01 08:17:43;;;;;;;9.85;2.25;;;;;;;26.01;37.87;101964.91;5148825;28;20027;-72
2022/09/01 08:20:14;;;;;;;8.43;2.03;;;;;;;26.63;37.05;101965.31;5148377;28;20098;-72
2022/09/01 08:22:46;;;;;;;8.45;2.22;;;;;;;27.18;35.71;101966.31;5149977;29;20161;-70
2022/09/01 08:25:17;;;;;;;7.68;1.98;;;;;;;27.42;35.17;101969.03;5148257;29;20023;-70
2022/09/01 08:27:48;;;;;;;5.65;2.17;;;;;;;28.10;34.63;101968.34;5147912;29;20027;-70
2022/09/01 08:30:20;;;;;;;6.15;1.58;;;;;;;27.85;34.53;101967.75;5148907;29;20036;-70
2022/09/01 08:32:51;;;;;;;9.80;2.35;;;;;;;28.83;32.90;101958.03;5148427;28;20020;-70
2022/09/01 08:35:22;;;;;;;8.30;2.33;;;;;;;28.99;32.70;101951.63;5147085;29;20653;-71
2022/09/01 08:37:55;;;;;;;7.85;2.15;;;;;;;28.65;32.49;101956.56;5148003;29;20425;-70
2022/09/01 08:40:26;;;;;;;8.73;1.95;;;;;;;29.57;31.42;101960.72;5146838;29;20031;-71
2022/09/01 08:43:18;;;;;;;9.07;2.20;;;;;;;30.44;32.69;101962.50;5146678;28;20035;-70
2022/09/01 08:45:53;;;;;;;4.63;2.42;;;;;;;30.19;30.52;101961.06;5148087;28;20032;-70
2022/09/01 08:48:52;;;;;;;11.60;2.42;;;;;;;30.82;31.26;101966.66;5148035;28;20061;-71
2022/09/01 08:51:31;;;;;;;5.18;2.00;;;;;;;30.67;30.27;101964.91;5148161;28;20482;-70
2022/09/01 08:54:28;;;;;;;8.27;1.70;;;;;;;31.47;30.91;101960.00;5148628;29;20031;-70
2022/09/01 08:57:05;;;;;;;7.70;1.90;;;;;;;31.64;29.33;101967.72;5147570;28;20134;-71
2022/09/01 08:59:36;;;;;;;9.15;2.05;;;;;;;31.44;28.94;101963.13;5147817;28;20031;-71
2022/09/01 09:02:33;;;;;;;12.48;2.90;;;;;;;32.33;28.65;101972.06;5148525;29;20046;-72
2022/09/01 09:05:32;;;;;;;7.25;2.10;;;;;;;32.82;28.97;101961.72;5148041;28;20039;-71
2022/09/01 09:08:23;;;;;;;6.57;1.55;;;;;;;33.34;27.20;101956.47;5130533;29;20130;-71
2022/09/01 09:11:00;;;;;;;4.25;1.60;;;;;;;33.75;26.56;101957.84;5151022;28;20070;-72
2022/09/01 09:13:40;;;;;;;6.22;1.70;;;;;;;34.16;26.33;101954.72;5151780;28;20482;-72
2022/09/01 09:16:17;;;;;;;7.70;2.10;;;;;;;33.80;25.62;101955.31;5152652;29;20038;-72
2022/09/01 09:18:53;;;;;;;7.28;1.75;;;;;;;33.46;25.29;101951.16;5152474;28;20767;-72
2022/09/01 09:21:41;;;;;;;9.00;1.63;;;;;;;34.72;25.31;101935.75;5150834;29;20127;-72
2022/09/01 09:24:49;;;;;;;6.22;1.73;;;;;;;35.00;25.37;101949.81;5152488;28;20053;-72
2022/09/01 09:27:28;;;;;;;8.50;2.50;;;;;;;34.39;24.39;101939.66;5149855;28;20035;-72
2022/09/01 09:30:22;;;;;;;7.40;1.75;;;;;;;33.77;25.36;101944.03;5151552;28;20034;-72
2022/09/01 09:32:59;;;;;;;6.75;1.50;;;;;;;33.47;24.77;101940.09;5151793;29;20042;-72
2022/09/01 09:35:35;;;;;;;8.13;1.52;;;;;;;34.22;23.52;101945.72;5151937;28;20046;-72
2022/09/01 09:38:17;;;;;;;8.32;2.13;;;;;;;34.36;24.08;101948.28;5152126;29;20479;-72
2022/09/01 09:41:15;;;;;;;6.57;1.65;;;;;;;35.79;22.71;101941.72;5152088;28;20548;-72
2022/09/01 09:43:57;;;;;;;11.15;1.50;;;;;;;34.54;22.97;101930.31;5152026;29;20024;-72
2022/09/01 09:46:41;;;;;;;9.10;1.30;;;;;;;35.88;23.31;101937.56;5151190;28;20434;-72
2022/09/01 09:49:23;;;;;;;10.38;1.50;;;;;;;35.06;23.46;101920.84;5152213;28;20802;-71
2022/09/01 09:52:15;;;;;;;7.35;1.63;;;;;;;36.20;22.63;101922.72;5150012;29;20043;-72
2022/09/01 09:55:03;;;;;;;9.85;2.03;;;;;;;35.90;22.80;101919.09;5151608;28;20474;-73
2022/09/01 09:57:38;;;;;;;10.73;1.35;;;;;;;35.73;20.49;101919.75;5149280;29;20078;-72
2022/09/01 10:00:28;;;;;;;11.38;1.20;;;;;;;36.15;21.62;101920.69;5152299;28;20509;-71
2022/09/01 10:03:06;;;;;;;3.35;0.82;;;;;;;36.22;19.96;101917.84;5153214;28;20656;-72
2022/09/01 10:05:45;;;;;;;4.90;1.45;;;;;;;35.68;20.64;101916.13;5150552;28;20035;-72
2022/09/01 10:08:26;;;;;;;4.50;1.02;;;;;;;36.02;20.96;101913.63;5151903;29;20035;-72
2022/09/01 10:10:57;;;;;;;8.10;1.27;;;;;;;36.42;19.37;101922.94;5151015;28;20086;-72
2022/09/01 10:13:30;;;;;;;5.23;1.20;;;;;;;35.38;19.87;101903.41;5151717;29;20035;-71
2022/09/01 10:16:14;;;;;;;13.05;1.17;;;;;;;36.17;20.07;101918.56;5150859;29;20043;-72
2022/09/01 10:18:47;;;;;;;7.82;1.27;;;;;;;35.39;20.20;101908.63;5151316;28;20031;-72
2022/09/01 10:21:40;;;;;;;7.03;0.98;;;;;;;35.26;19.74;101903.41;5151072;28;20490;-72
2022/09/01 10:24:28;;;;;;;6.07;1.10;;;;;;;36.02;20.08;101901.88;5150206;29;20099;-71
2022/09/01 10:27:04;;;;;;;6.78;0.90;;;;;;;34.88;19.29;101904.34;5151759;28;20023;-72
2022/09/01 10:29:42;;;;;;;3.35;1.00;;;;;;;35.62;19.35;101900.69;5150954;28;20031;-72
2022/09/01 10:32:28;;;;;;;4.95;0.95;;;;;;;35.46;19.58;101892.16;5150250;29;20039;-76
2022/09/01 10:35:01;;;;;;;3.90;1.20;;;;;;;35.60;18.83;101898.22;5151176;29;20294;-72
2022/09/01 10:37:33;;;;;;;2.78;0.70;;;;;;;35.45;18.49;101904.16;5150279;28;20831;-72
2022/09/01 10:40:13;;;;;;;2.63;0.83;;;;;;;35.69;19.01;101904.97;5150816;29;20170;-72
2022/09/01 10:42:52;;;;;;;5.05;0.93;;;;;;;36.36;17.78;101898.53;5149843;29;20525;-72
2022/09/01 10:45:37;;;;;;;2.63;0.90;;;;;;;35.71;19.60;101907.47;5150464;28;20118;-72
2022/09/01 10:48:22;;;;;;;2.00;0.80;;;;;;;35.34;19.24;101912.06;5150272;28;20027;-72
2022/09/01 10:51:12;;;;;;;4.03;1.20;;;;;;;35.38;19.82;101897.97;5150790;28;20027;-71
2022/09/01 10:53:51;;;;;;;1.73;0.85;;;;;;;34.44;20.15;101893.59;5132689;29;20386;-73
2022/09/01 10:56:34;;;;;;;5.28;1.00;;;;;;;34.08;19.70;101893.38;5149173;29;20042;-72
2022/09/01 10:59:10;;;;;;;3.83;1.20;;;;;;;33.08;20.37;101902.94;5149122;28;20438;-72
2022/09/01 11:01:44;;;;;;;3.38;1.05;;;;;;;33.01;20.79;101899.44;5149641;29;20031;-72
2022/09/01 11:04:19;;;;;;;3.97;0.90;;;;;;;33.14;20.84;101893.13;5150237;29;20082;-72
2022/09/01 11:06:50;;;;;;;4.22;1.20;;;;;;;32.53;20.96;101893.41;5149778;28;20085;-72
2022/09/01 11:09:25;;;;;;;3.47;1.40;;;;;;;32.45;21.09;101897.19;5150286;29;20059;-72
2022/09/01 11:12:21;;;;;;;10.80;1.33;;;;;;;32.55;20.99;101888.66;5148846;29;20118;-73
2022/09/01 11:14:58;;;;;;;4.70;1.23;;;;;;;32.65;20.79;101881.91;5150382;28;20046;-71
2022/09/01 11:17:37;;;;;;;5.82;1.05;;;;;;;32.08;20.93;101897.72;5149608;28;20030;-70
2022/09/01 11:20:21;;;;;;;3.25;1.00;;;;;;;31.75;21.45;101902.13;5148750;29;20031;-71
2022/09/01 11:22:55;;;;;;;12.77;1.52;;;;;;;32.65;21.09;101885.47;5150259;28;20130;-71
2022/09/01 11:25:38;;;;;;;3.45;1.08;;;;;;;32.95;21.15;101873.19;5149744;29;20121;-69
2022/09/01 11:28:37;;;;;;;5.63;1.27;;;;;;;32.65;21.86;101880.03;5148628;29;20089;-71
2022/09/01 11:31:24;;;;;;;12.20;2.92;;;;;;;32.28;21.82;101883.28;5144588;29;20455;-71
2022/09/01 11:34:14;;;;;;;5.15;1.33;;;;;;;32.96;21.82;101861.28;5149044;28;20462;-70
2022/09/01 11:36:53;;;;;;;4.45;1.10;;;;;;;32.81;21.32;101864.31;5149733;28;20062;-70
2022/09/01 11:39:38;;;;;;;4.88;1.33;;;;;;;32.42;21.91;101865.09;5149332;28;20549;-69
2022/09/01 11:42:17;;;;;;;5.85;0.93;;;;;;;31.63;22.87;101869.44;5149127;28;20062;-70
2022/09/01 11:45:00;;;;;;;3.88;1.20;;;;;;;31.76;22.41;101870.47;5148291;28;20621;-69
2022/09/01 11:47:39;;;;;;;3.70;1.00;;;;;;;32.41;21.35;101841.75;5148979;28;20028;-69
2022/09/01 11:50:20;;;;;;;3.15;0.95;;;;;;;32.12;21.75;101857.47;5149825;28;20390;-70
2022/09/01 11:52:56;;;;;;;2.45;1.02;;;;;;;32.49;20.91;101854.22;5149443;28;20027;-70
2022/09/01 11:55:31;;;;;;;4.60;1.08;;;;;;;32.63;21.51;101846.88;5149270;29;20062;-70
2022/09/01 11:58:03;;;;;;;7.82;0.90;;;;;;;31.36;21.52;101852.34;5148117;29;20031;-70
2022/09/01 12:00:38;;;;;;;5.95;1.00;;;;;;;32.25;21.53;101843.06;5149349;29;20503;-70
2022/09/01 12:03:23;;;;;;;3.33;1.05;;;;;;;31.93;22.10;101837.50;5148907;28;20031;-70
2022/09/01 12:06:02;;;;;;;1.95;0.82;;;;;;;32.21;21.03;101825.56;5148868;28;20039;-70
2022/09/01 12:08:40;;;;;;;6.90;1.13;;;;;;;31.92;21.42;101830.44;5148675;28;20031;-69